Time;durP1;ratioP1;P1;durP2;ratioP2;P2;SDS_P1;SDS_P2;PMS_P1;PMS_P2;Temp;Humidity;BMP_temperature;BMP_pressure;BME280_temperature;BME280_humidity;BME280_pressure;Samples;Min_cycle;Max_cycle;Signal;HPM_P1;HPM_P2
2022/11/27 00:01:52;;;;;;;12.75;3.45;;;6.50;99.90;;;;;;4897544;29;20057;-66
2022/11/27 00:04:18;;;;;;;10.05;4.00;;;6.40;99.90;;;;;;4897070;29;20051;-66
2022/11/27 00:06:46;;;;;;;19.52;3.85;;;6.20;99.90;;;;;;4897302;29;20096;-66
2022/11/27 00:09:15;;;;;;;19.98;5.55;;;6.10;99.90;;;;;;4897696;29;20049;-66
2022/11/27 00:11:41;;;;;;;14.75;4.32;;;6.00;99.90;;;;;;4897384;29;20487;-68
2022/11/27 00:14:09;;;;;;;;;;;6.00;99.90;;;;;;4898162;29;20407;-66
2022/11/27 00:16:34;;;;;;;9.50;3.50;;;5.90;99.90;;;;;;4897690;29;19970;-66
2022/11/27 00:19:00;;;;;;;14.55;4.35;;;6.00;99.90;;;;;;4896902;29;20083;-66
2022/11/27 00:21:28;;;;;;;11.23;4.07;;;6.00;99.90;;;;;;4897123;29;20097;-66
2022/11/27 00:23:56;;;;;;;15.48;3.97;;;6.00;99.90;;;;;;4895986;29;20091;-66
2022/11/27 00:26:22;;;;;;;11.27;4.10;;;6.00;99.90;;;;;;4897363;29;20689;-66
2022/11/27 00:28:48;;;;;;;11.25;3.97;;;5.90;99.90;;;;;;4897224;29;20131;-66
2022/11/27 00:31:16;;;;;;;;;;;5.80;99.90;;;;;;4897646;29;20084;-66
2022/11/27 00:33:41;;;;;;;;;;;5.80;99.90;;;;;;4897417;29;19934;-68
2022/11/27 00:36:08;;;;;;;13.50;3.80;;;5.70;99.90;;;;;;4896588;29;19923;-66
2022/11/27 00:38:34;;;;;;;;;;;5.70;99.90;;;;;;4897427;29;20040;-66
2022/11/27 00:41:10;;;;;;;19.67;4.53;;;5.60;99.90;;;;;;4896185;29;19970;-66
2022/11/27 00:43:37;;;;;;;16.40;3.72;;;5.60;99.90;;;;;;4896790;29;20219;-66
2022/11/27 00:46:04;;;;;;;15.60;4.65;;;5.60;99.90;;;;;;4896702;29;20119;-66
2022/11/27 00:48:29;;;;;;;9.38;3.78;;;5.50;99.90;;;;;;4897248;29;20052;-66
2022/11/27 00:51:04;;;;;;;10.07;3.90;;;5.50;99.90;;;;;;4895268;29;20049;-66
2022/11/27 00:53:30;;;;;;;9.73;3.97;;;5.50;99.90;;;;;;4897050;29;20048;-66
2022/11/27 00:55:56;;;;;;;15.65;4.22;;;5.40;99.90;;;;;;4896693;29;20056;-66
2022/11/27 00:58:25;;;;;;;12.80;4.07;;;5.40;99.90;;;;;;4897102;29;20068;-66
2022/11/27 01:01:03;;;;;;;13.52;4.20;;;5.50;99.90;;;;;;4896581;29;20148;-66
2022/11/27 01:03:30;;;;;;;11.95;3.97;;;5.40;99.90;;;;;;4896672;29;20483;-66
2022/11/27 01:05:56;;;;;;;12.07;4.47;;;5.80;99.90;;;;;;4895818;29;20513;-66
2022/11/27 01:08:22;;;;;;;18.83;4.93;;;5.40;99.90;;;;;;4896551;29;20051;-66
2022/11/27 01:10:49;;;;;;;;;;;5.40;99.90;;;;;;4896366;29;20049;-66
2022/11/27 01:13:14;;;;;;;19.70;4.05;;;5.40;99.90;;;;;;4896868;29;19923;-66
2022/11/27 01:15:40;;;;;;;13.98;4.28;;;5.50;99.90;;;;;;4896040;29;20062;-66
2022/11/27 01:18:05;;;;;;;13.60;4.30;;;5.40;99.90;;;;;;4895889;29;20281;-66
2022/11/27 01:20:31;;;;;;;9.55;4.15;;;5.30;99.90;;;;;;4896287;29;20100;-66
2022/11/27 01:22:57;;;;;;;28.88;7.32;;;5.30;99.90;;;;;;4896092;29;20103;-66
2022/11/27 01:25:22;;;;;;;20.98;4.38;;;5.30;99.90;;;;;;4896537;29;20056;-66
2022/11/27 01:27:48;;;;;;;21.20;4.80;;;5.60;99.90;;;;;;4896521;29;20059;-68
2022/11/27 01:30:14;;;;;;;12.13;4.13;;;5.20;99.90;;;;;;4896520;29;20087;-66
2022/11/27 01:32:39;;;;;;;9.93;3.90;;;5.10;99.90;;;;;;4896683;29;20507;-66
2022/11/27 01:35:06;;;;;;;17.55;4.22;;;5.10;99.90;;;;;;4895758;29;20045;-66
2022/11/27 01:37:31;;;;;;;;;;;5.10;99.90;;;;;;4896691;29;20055;-66
2022/11/27 01:39:57;;;;;;;12.10;3.95;;;5.10;99.90;;;;;;4895750;29;19923;-67
2022/11/27 01:42:22;;;;;;;11.75;4.15;;;5.10;99.90;;;;;;4896465;29;20040;-66
2022/11/27 01:44:54;;;;;;;13.73;5.13;;;5.10;99.90;;;;;;4896179;29;20053;-66
2022/11/27 01:47:47;;;;;;;13.93;4.65;;;5.10;99.90;;;;;;4896530;29;20161;-66
2022/11/27 01:50:17;;;;;;;12.05;3.83;;;5.00;99.90;;;;;;4895372;29;20513;-66
2022/11/27 01:52:48;;;;;;;11.95;3.72;;;5.00;99.90;;;;;;4895213;29;20055;-66
2022/11/27 01:55:39;;;;;;;19.73;4.57;;;5.00;99.90;;;;;;4894719;29;20056;-66
2022/11/27 01:58:15;;;;;;;10.20;3.55;;;5.00;99.90;;;;;;4891493;29;20103;-66
2022/11/27 02:00:41;;;;;;;15.18;3.65;;;4.90;99.90;;;;;;4896361;29;20056;-66
2022/11/27 02:03:07;;;;;;;12.05;4.80;;;5.00;99.90;;;;;;4894804;29;20053;-66
2022/11/27 02:05:32;;;;;;;8.90;4.18;;;4.80;99.90;;;;;;4895815;29;20060;-66
2022/11/27 02:08:04;;;;;;;8.20;3.60;;;4.80;99.90;;;;;;4895833;29;20052;-66
2022/11/27 02:10:46;;;;;;;9.43;4.28;;;4.80;99.90;;;;;;4896237;29;20052;-66
2022/11/27 02:13:42;;;;;;;12.57;4.32;;;4.80;99.90;;;;;;4896083;29;20588;-66
2022/11/27 02:16:28;;;;;;;17.48;4.53;;;4.80;99.90;;;;;;4895621;29;20498;-66
2022/11/27 02:19:14;;;;;;;16.15;4.57;;;4.70;99.90;;;;;;4894560;29;20427;-68
2022/11/27 02:21:53;;;;;;;11.68;3.97;;;4.70;99.90;;;;;;4895994;29;20041;-67
2022/11/27 02:24:37;;;;;;;12.82;3.83;;;4.70;99.90;;;;;;4895847;29;20033;-66
2022/11/27 02:27:51;;;;;;;14.75;4.50;;;4.70;99.90;;;;;;4895625;29;20064;-66
2022/11/27 02:30:17;;;;;;;9.30;3.22;;;4.60;99.90;;;;;;4899289;29;20089;-66
2022/11/27 02:32:59;;;;;;;12.10;4.20;;;4.60;99.90;;;;;;4899639;29;20049;-65
2022/11/27 02:35:44;;;;;;;13.15;4.65;;;4.60;99.90;;;;;;4898743;29;20513;-66
2022/11/27 02:38:17;;;;;;;12.80;4.18;;;4.60;99.90;;;;;;4899039;29;20048;-65
2022/11/27 02:40:42;;;;;;;19.88;4.53;;;4.80;99.90;;;;;;4898938;29;20056;-66
2022/11/27 02:43:15;;;;;;;12.77;4.55;;;5.00;99.90;;;;;;4898812;29;20045;-66
2022/11/27 02:45:47;;;;;;;14.60;4.32;;;4.60;99.90;;;;;;4899426;29;20056;-66
2022/11/27 02:48:15;;;;;;;15.50;4.15;;;4.90;99.90;;;;;;4897896;29;20111;-65
2022/11/27 02:50:43;;;;;;;13.27;3.55;;;4.60;99.90;;;;;;4898865;29;20048;-66
2022/11/27 02:53:22;;;;;;;14.68;4.30;;;4.60;99.90;;;;;;4898482;29;20080;-66
2022/11/27 02:55:50;;;;;;;16.40;3.80;;;4.60;99.90;;;;;;4898973;29;20499;-66
2022/11/27 02:58:22;;;;;;;14.77;4.47;;;4.60;99.90;;;;;;4898711;29;20040;-66
2022/11/27 03:00:49;;;;;;;10.63;3.63;;;4.60;99.90;;;;;;4898906;29;20041;-66
2022/11/27 03:03:20;;;;;;;9.07;3.65;;;4.60;99.90;;;;;;4898551;29;20127;-66
2022/11/27 03:05:49;;;;;;;16.73;4.55;;;4.60;99.90;;;;;;4898385;29;20099;-66
2022/11/27 03:08:24;;;;;;;8.35;3.40;;;4.60;99.90;;;;;;4897253;29;20045;-66
2022/11/27 03:11:01;;;;;;;13.02;3.47;;;4.60;99.90;;;;;;4899050;29;20061;-66
2022/11/27 03:13:29;;;;;;;13.40;3.70;;;4.60;99.90;;;;;;4899030;29;20479;-66
2022/11/27 03:16:13;;;;;;;13.93;3.22;;;4.60;99.90;;;;;;4898757;29;20494;-66
2022/11/27 03:18:55;;;;;;;10.20;3.33;;;4.60;99.90;;;;;;4898945;29;20083;-65
2022/11/27 03:21:26;;;;;;;11.80;4.40;;;4.60;99.90;;;;;;4897000;29;20430;-66
2022/11/27 03:23:52;;;;;;;13.77;3.85;;;4.60;99.90;;;;;;4898526;29;20055;-67
2022/11/27 03:26:18;;;;;;;8.93;3.55;;;4.70;99.90;;;;;;4898380;29;20233;-66
2022/11/27 03:28:45;;;;;;;11.55;4.18;;;4.80;99.90;;;;;;4898710;29;20056;-66
2022/11/27 03:31:10;;;;;;;13.52;3.92;;;4.70;99.90;;;;;;4898275;29;20053;-66
2022/11/27 03:33:36;;;;;;;7.82;3.22;;;4.70;99.90;;;;;;4898495;29;20439;-66
2022/11/27 03:36:13;;;;;;;10.27;3.33;;;4.70;99.90;;;;;;4897534;29;20139;-66
2022/11/27 03:38:38;;;;;;;14.70;4.72;;;4.70;99.90;;;;;;4898233;29;20048;-66
2022/11/27 03:41:13;;;;;;;8.02;3.50;;;4.80;99.90;;;;;;4897655;29;20535;-66
2022/11/27 03:43:50;;;;;;;9.68;3.10;;;4.80;99.90;;;;;;4898470;29;20052;-66
2022/11/27 03:46:27;;;;;;;11.32;3.17;;;4.80;99.90;;;;;;4897926;29;20044;-65
2022/11/27 03:49:18;;;;;;;12.77;3.50;;;4.80;99.90;;;;;;4898331;29;20059;-66
2022/11/27 03:52:19;;;;;;;8.73;3.13;;;4.80;99.90;;;;;;4897837;29;20406;-66
2022/11/27 03:54:59;;;;;;;10.68;3.22;;;4.80;99.90;;;;;;4897785;29;20498;-66
2022/11/27 03:57:49;;;;;;;13.75;3.30;;;4.80;99.90;;;;;;4897953;29;20602;-66
2022/11/27 04:00:15;;;;;;;10.73;3.15;;;4.80;99.90;;;;;;4890491;29;20064;-66
2022/11/27 04:02:47;;;;;;;10.70;2.90;;;4.80;99.90;;;;;;4898013;29;20041;-66
2022/11/27 04:05:14;;;;;;;10.60;3.05;;;4.80;99.90;;;;;;4897122;29;20041;-66
2022/11/27 04:07:40;;;;;;;10.38;3.40;;;5.00;99.90;;;;;;4897820;29;20376;-66
2022/11/27 04:10:06;;;;;;;;;;;4.80;99.90;;;;;;4897767;29;20483;-66
2022/11/27 04:12:31;;;;;;;6.88;2.75;;;4.80;99.90;;;;;;4897877;29;19934;-66
2022/11/27 04:14:57;;;;;;;13.15;2.97;;;4.90;99.90;;;;;;4897775;29;20045;-66
2022/11/27 04:17:23;;;;;;;7.18;2.75;;;4.90;99.90;;;;;;4897403;29;20293;-66
2022/11/27 04:19:49;;;;;;;8.07;3.17;;;4.90;99.90;;;;;;4897302;29;20398;-66
2022/11/27 04:22:14;;;;;;;9.00;2.78;;;4.80;99.90;;;;;;4896838;29;20096;-66
2022/11/27 04:24:40;;;;;;;11.93;2.83;;;4.90;99.90;;;;;;4896316;29;20054;-66
2022/11/27 04:27:06;;;;;;;11.27;3.13;;;4.90;99.90;;;;;;4896953;29;20103;-66
2022/11/27 04:29:31;;;;;;;10.65;3.40;;;5.00;99.90;;;;;;4897546;29;20053;-66
2022/11/27 04:31:57;;;;;;;10.75;3.25;;;4.90;99.90;;;;;;4897527;29;20037;-66
2022/11/27 04:34:22;;;;;;;13.23;2.85;;;4.90;99.90;;;;;;4896610;29;20577;-66
2022/11/27 04:36:48;;;;;;;5.70;2.60;;;4.90;99.90;;;;;;4897236;29;20048;-66
2022/11/27 04:39:14;;;;;;;13.65;2.90;;;4.90;99.90;;;;;;4896592;29;20048;-66
2022/11/27 04:41:40;;;;;;;7.85;3.53;;;4.90;99.90;;;;;;4897320;29;20059;-66
2022/11/27 04:44:05;;;;;;;9.65;2.95;;;5.30;99.90;;;;;;4896806;29;20052;-68
2022/11/27 04:46:31;;;;;;;5.70;2.95;;;4.90;99.90;;;;;;4897174;29;20178;-66
2022/11/27 04:48:57;;;;;;;10.93;2.70;;;5.00;99.90;;;;;;4897118;29;20483;-66
2022/11/27 04:51:23;;;;;;;17.60;3.78;;;4.90;99.90;;;;;;4896363;29;20661;-66
2022/11/27 04:53:49;;;;;;;;;;;4.90;99.90;;;;;;4897395;29;20045;-66
2022/11/27 04:56:15;;;;;;;7.35;2.53;;;4.90;99.90;;;;;;4896758;29;19924;-66
2022/11/27 04:58:40;;;;;;;6.60;2.75;;;4.90;99.90;;;;;;4896206;29;20063;-66
2022/11/27 05:01:08;;;;;;;13.15;2.70;;;4.90;99.90;;;;;;4896648;29;20052;-68
2022/11/27 05:03:34;;;;;;;7.03;2.58;;;4.90;99.90;;;;;;4896893;29;20052;-66
2022/11/27 05:06:00;;;;;;;9.10;2.83;;;4.90;99.90;;;;;;4896142;29;20045;-66
2022/11/27 05:08:29;;;;;;;8.27;2.45;;;4.90;99.90;;;;;;4896282;29;20649;-66
2022/11/27 05:11:06;;;;;;;10.07;3.28;;;5.20;99.90;;;;;;4895695;29;20081;-66
2022/11/27 05:13:33;;;;;;;8.18;2.30;;;4.90;99.90;;;;;;4896872;29;20135;-66
2022/11/27 05:15:59;;;;;;;6.35;3.13;;;5.20;99.90;;;;;;4896753;29;20065;-67
2022/11/27 05:18:25;;;;;;;7.18;2.60;;;5.00;99.90;;;;;;4896417;29;20529;-66
2022/11/27 05:20:58;;;;;;;10.98;2.75;;;4.90;99.90;;;;;;4895152;29;20084;-66
2022/11/27 05:23:24;;;;;;;4.85;2.40;;;5.30;99.90;;;;;;4896003;29;20045;-67
2022/11/27 05:25:49;;;;;;;11.25;2.92;;;4.90;99.90;;;;;;4896369;29;20052;-66
2022/11/27 05:28:15;;;;;;;15.52;3.38;;;4.90;99.90;;;;;;4896312;29;20406;-66
2022/11/27 05:30:41;;;;;;;8.98;2.60;;;4.90;99.90;;;;;;4896285;29;20055;-66
2022/11/27 05:33:06;;;;;;;6.55;2.60;;;4.90;99.90;;;;;;4896725;29;20135;-66
2022/11/27 05:35:32;;;;;;;8.73;3.25;;;4.90;99.90;;;;;;4896105;29;20053;-66
2022/11/27 05:37:58;;;;;;;13.30;2.85;;;4.90;99.90;;;;;;4896476;29;20087;-66
2022/11/27 05:40:23;;;;;;;6.65;3.10;;;4.90;99.90;;;;;;4896027;29;20044;-66
2022/11/27 05:42:49;;;;;;;9.02;2.72;;;4.80;99.90;;;;;;4896596;29;20086;-66
2022/11/27 05:45:15;;;;;;;6.45;2.60;;;4.90;99.90;;;;;;4895975;29;20550;-66
2022/11/27 05:47:40;;;;;;;11.57;2.97;;;4.80;99.90;;;;;;4896697;29;20084;-66
2022/11/27 05:50:06;;;;;;;7.90;2.70;;;4.80;99.90;;;;;;4896053;29;20044;-66
2022/11/27 05:52:32;;;;;;;8.60;3.17;;;4.80;99.90;;;;;;4895888;29;20091;-66
2022/11/27 05:54:58;;;;;;;10.32;3.28;;;4.80;99.90;;;;;;4896267;29;20088;-66
2022/11/27 05:57:23;;;;;;;12.80;3.53;;;4.80;99.90;;;;;;4896100;29;20056;-66
2022/11/27 05:59:49;;;;;;;9.52;2.70;;;4.80;99.90;;;;;;4896412;29;20143;-66
2022/11/27 06:02:15;;;;;;;6.95;2.70;;;4.80;99.90;;;;;;4895797;29;20091;-66
2022/11/27 06:04:40;;;;;;;6.68;2.60;;;4.80;99.90;;;;;;4899604;29;20099;-66
2022/11/27 06:07:06;;;;;;;10.48;2.85;;;4.80;99.90;;;;;;4899910;29;20052;-66
2022/11/27 06:09:32;;;;;;;7.90;2.85;;;4.80;99.90;;;;;;4898271;29;20048;-66
2022/11/27 06:11:57;;;;;;;7.60;2.88;;;5.00;99.90;;;;;;4900088;29;20135;-66
2022/11/27 06:14:23;;;;;;;8.85;3.05;;;4.80;99.90;;;;;;4899359;29;20054;-66
2022/11/27 06:16:49;;;;;;;10.73;3.13;;;4.80;99.90;;;;;;4899926;29;20049;-66
2022/11/27 06:19:14;;;;;;;7.93;2.40;;;4.80;99.90;;;;;;4899135;29;20048;-66
2022/11/27 06:21:40;;;;;;;8.68;2.90;;;4.80;99.90;;;;;;4899578;29;20049;-66
2022/11/27 06:24:06;;;;;;;9.55;2.70;;;4.80;99.90;;;;;;4898545;29;20112;-66
2022/11/27 06:26:32;;;;;;;9.23;2.58;;;4.80;99.90;;;;;;4899547;29;20058;-66
2022/11/27 06:28:59;;;;;;;6.20;2.75;;;4.80;99.90;;;;;;4899527;29;20064;-66
2022/11/27 06:31:28;;;;;;;12.00;4.07;;;4.90;99.90;;;;;;4899031;29;20115;-66
2022/11/27 06:33:55;;;;;;;8.48;3.17;;;4.80;99.90;;;;;;4899142;29;20403;-67
2022/11/27 06:36:23;;;;;;;6.25;2.35;;;4.70;99.90;;;;;;4898660;29;20052;-66
2022/11/27 06:38:49;;;;;;;10.57;3.72;;;4.80;99.90;;;;;;4899327;29;20045;-66
2022/11/27 06:41:18;;;;;;;8.10;2.55;;;4.80;99.90;;;;;;4898365;29;20131;-68
2022/11/27 06:43:43;;;;;;;11.68;3.50;;;4.80;99.90;;;;;;4899452;29;20132;-66
2022/11/27 06:46:14;;;;;;;9.20;2.85;;;4.80;99.90;;;;;;4899359;29;20597;-66
2022/11/27 06:48:41;;;;;;;13.32;3.35;;;4.80;99.90;;;;;;4899320;29;20056;-66
2022/11/27 06:51:10;;;;;;;6.43;3.00;;;4.80;99.90;;;;;;4898421;29;20060;-66
2022/11/27 06:53:37;;;;;;;7.65;2.83;;;5.00;99.90;;;;;;4898714;29;20037;-66
2022/11/27 06:56:07;;;;;;;10.38;3.00;;;4.80;99.90;;;;;;4899253;29;20104;-65
2022/11/27 06:58:34;;;;;;;6.25;2.55;;;4.80;99.90;;;;;;4898988;29;20053;-66
2022/11/27 07:01:02;;;;;;;7.72;2.95;;;4.80;99.90;;;;;;4899019;29;20049;-66
2022/11/27 07:03:28;;;;;;;8.32;2.88;;;4.90;99.90;;;;;;4898632;29;20104;-66
2022/11/27 07:05:54;;;;;;;12.55;4.00;;;4.90;99.90;;;;;;4897623;29;20052;-66
2022/11/27 07:08:21;;;;;;;8.70;3.00;;;4.90;99.90;;;;;;4898559;29;20088;-66
2022/11/27 07:10:47;;;;;;;9.85;3.00;;;4.80;99.90;;;;;;4898591;29;20052;-66
2022/11/27 07:13:13;;;;;;;8.43;2.70;;;4.90;99.90;;;;;;4898718;29;20059;-66
2022/11/27 07:15:38;;;;;;;11.90;2.90;;;4.80;99.90;;;;;;4896485;29;20047;-66
2022/11/27 07:18:04;;;;;;;7.30;3.00;;;4.90;99.90;;;;;;4898870;29;20044;-66
2022/11/27 07:20:30;;;;;;;11.40;3.55;;;4.90;99.90;;;;;;4898251;29;20048;-66
2022/11/27 07:22:56;;;;;;;8.35;3.28;;;4.90;99.90;;;;;;4898575;29;20104;-66
2022/11/27 07:25:22;;;;;;;8.40;2.35;;;5.60;99.90;;;;;;4898253;29;20056;-66
2022/11/27 07:27:47;;;;;;;11.27;3.22;;;4.90;99.90;;;;;;4898479;29;20060;-66
2022/11/27 07:30:14;;;;;;;5.82;2.70;;;4.90;99.90;;;;;;4898640;29;20174;-66
2022/11/27 07:32:39;;;;;;;8.25;3.45;;;4.90;99.90;;;;;;4898063;29;20048;-66
2022/11/27 07:35:05;;;;;;;10.43;3.03;;;5.10;99.90;;;;;;4897098;29;20131;-66
2022/11/27 07:37:31;;;;;;;10.60;3.03;;;4.90;99.90;;;;;;4898050;29;20135;-66
2022/11/27 07:39:57;;;;;;;7.00;3.00;;;4.90;99.90;;;;;;4898329;29;20108;-66
2022/11/27 07:42:23;;;;;;;8.07;2.88;;;5.00;99.90;;;;;;4898034;29;20049;-66
2022/11/27 07:44:49;;;;;;;10.75;3.13;;;5.00;99.90;;;;;;4897144;29;20513;-66
2022/11/27 07:47:14;;;;;;;8.45;3.05;;;5.30;99.90;;;;;;4898204;29;20045;-65
2022/11/27 07:49:40;;;;;;;7.70;2.55;;;4.90;99.90;;;;;;4897411;29;20130;-66
2022/11/27 07:52:06;;;;;;;6.13;2.65;;;5.00;99.90;;;;;;4898100;29;20045;-66
2022/11/27 07:54:32;;;;;;;6.38;2.85;;;5.60;99.90;;;;;;4897491;29;20526;-65
2022/11/27 07:56:57;;;;;;;8.68;3.42;;;5.00;99.90;;;;;;4898162;29;20505;-66
2022/11/27 07:59:23;;;;;;;7.05;3.78;;;5.00;99.90;;;;;;4897886;29;20491;-68
2022/11/27 08:01:48;;;;;;;9.35;3.35;;;5.00;99.90;;;;;;4896780;29;20044;-66
2022/11/27 08:04:14;;;;;;;9.52;3.03;;;5.10;99.90;;;;;;4897570;29;20147;-67
2022/11/27 08:06:40;;;;;;;10.35;3.50;;;5.00;99.90;;;;;;4897143;29;20056;-65
2022/11/27 08:09:05;;;;;;;7.45;3.13;;;5.20;99.90;;;;;;4897579;29;20064;-65
2022/11/27 08:11:33;;;;;;;6.55;2.90;;;5.10;99.90;;;;;;4897220;29;20056;-66
2022/11/27 08:14:02;;;;;;;9.20;3.35;;;5.10;99.90;;;;;;4897644;29;20103;-66
2022/11/27 08:16:29;;;;;;;9.07;3.30;;;5.20;99.90;;;;;;4897077;29;20491;-66
2022/11/27 08:18:55;;;;;;;12.82;3.33;;;5.20;99.90;;;;;;4896775;29;20435;-66
2022/11/27 08:21:21;;;;;;;12.80;4.15;;;5.20;99.90;;;;;;4897183;29;20111;-66
2022/11/27 08:23:46;;;;;;;8.95;3.83;;;5.20;99.90;;;;;;4897124;29;20127;-66
2022/11/27 08:26:13;;;;;;;10.63;3.03;;;5.30;99.90;;;;;;4897108;29;20068;-66
2022/11/27 08:28:40;;;;;;;8.48;3.45;;;5.30;99.90;;;;;;4896874;29;20070;-66
2022/11/27 08:31:08;;;;;;;9.18;2.80;;;5.60;99.90;;;;;;4897237;29;20135;-66
2022/11/27 08:33:35;;;;;;;7.65;2.58;;;5.30;99.90;;;;;;4896768;29;20080;-65
2022/11/27 08:36:02;;;;;;;10.02;3.40;;;5.40;99.90;;;;;;4896911;29;20067;-66
2022/11/27 08:38:27;;;;;;;6.22;3.03;;;5.40;99.90;;;;;;4896775;29;20041;-68
2022/11/27 08:41:02;;;;;;;8.40;2.75;;;5.40;99.90;;;;;;4897365;29;20506;-66
2022/11/27 08:43:28;;;;;;;8.82;2.78;;;5.40;99.90;;;;;;4897006;29;20045;-68
2022/11/27 08:45:54;;;;;;;;;;;5.40;99.90;;;;;;4897917;29;20104;-66
2022/11/27 08:48:20;;;;;;;7.90;3.03;;;5.70;99.90;;;;;;4897261;29;20330;-66
2022/11/27 08:50:48;;;;;;;9.48;3.03;;;5.40;99.90;;;;;;4896389;29;20053;-66
2022/11/27 08:53:14;;;;;;;10.88;3.58;;;5.50;99.90;;;;;;4896909;29;20424;-67
2022/11/27 08:55:40;;;;;;;14.13;3.88;;;5.50;99.90;;;;;;4896582;29;20506;-66
2022/11/27 08:58:06;;;;;;;13.32;3.80;;;5.50;99.90;;;;;;4896872;29;20049;-66
2022/11/27 09:00:34;;;;;;;10.82;2.97;;;5.50;99.90;;;;;;4896524;29;20410;-66
2022/11/27 09:03:00;;;;;;;9.80;3.17;;;5.60;99.90;;;;;;4896898;29;20048;-67
2022/11/27 09:05:27;;;;;;;7.25;3.63;;;5.60;99.90;;;;;;4896386;29;20380;-66
2022/11/27 09:07:52;;;;;;;8.07;2.83;;;5.60;99.90;;;;;;4896318;29;20048;-66
2022/11/27 09:10:18;;;;;;;15.18;3.58;;;5.60;99.90;;;;;;4896805;29;20052;-67
2022/11/27 09:12:44;;;;;;;12.95;3.50;;;5.60;99.90;;;;;;4896575;29;20053;-66
2022/11/27 09:15:11;;;;;;;10.88;3.97;;;5.60;99.90;;;;;;4897088;29;20044;-66
2022/11/27 09:17:37;;;;;;;8.40;3.33;;;5.70;99.90;;;;;;4896466;29;20107;-66
2022/11/27 09:20:04;;;;;;;11.73;3.15;;;5.70;99.90;;;;;;4896352;29;20048;-66
2022/11/27 09:22:30;;;;;;;10.02;3.30;;;5.70;99.90;;;;;;4895191;29;20051;-68
2022/11/27 09:24:56;;;;;;;7.93;3.08;;;5.70;99.90;;;;;;4894534;29;20048;-66
2022/11/27 09:27:21;;;;;;;8.85;3.20;;;5.70;99.90;;;;;;4896078;29;20063;-66
2022/11/27 09:29:48;;;;;;;9.63;3.20;;;5.80;99.90;;;;;;4895551;29;20498;-65
2022/11/27 09:32:14;;;;;;;10.10;3.88;;;5.70;99.90;;;;;;4896080;29;20059;-66
2022/11/27 09:34:40;;;;;;;;;;;5.70;99.90;;;;;;4894556;29;20451;-66
2022/11/27 09:37:06;;;;;;;9.07;3.55;;;5.70;99.90;;;;;;4895194;29;19923;-66
2022/11/27 09:39:32;;;;;;;6.57;2.95;;;5.70;99.90;;;;;;4895808;29;20228;-68
2022/11/27 09:42:05;;;;;;;11.90;3.70;;;5.70;99.90;;;;;;4895854;29;20052;-66
2022/11/27 09:44:38;;;;;;;8.60;3.60;;;5.80;99.90;;;;;;4896128;29;20045;-67
2022/11/27 09:47:31;;;;;;;10.25;3.40;;;5.60;99.90;;;;;;4895762;29;20044;-66
2022/11/27 09:50:03;;;;;;;9.18;3.55;;;5.60;99.90;;;;;;4894890;29;20048;-68
2022/11/27 09:52:40;;;;;;;21.33;3.33;;;5.60;99.90;;;;;;4895593;29;20037;-66
2022/11/27 09:55:25;;;;;;;7.45;3.30;;;5.60;99.90;;;;;;4895793;29;20390;-66
2022/11/27 09:58:03;;;;;;;8.65;3.13;;;5.60;99.90;;;;;;4894106;29;20112;-67
2022/11/27 10:00:29;;;;;;;8.63;3.40;;;5.60;99.90;;;;;;4895989;29;20059;-66
2022/11/27 10:02:54;;;;;;;11.30;3.28;;;5.60;99.90;;;;;;4895715;29;20204;-66
2022/11/27 10:05:24;;;;;;;7.22;3.13;;;5.60;99.90;;;;;;4895104;29;20055;-66
2022/11/27 10:07:57;;;;;;;6.35;3.10;;;5.60;99.90;;;;;;4895411;29;20054;-67
2022/11/27 10:10:40;;;;;;;6.80;3.08;;;5.60;99.90;;;;;;4895672;29;20080;-66
2022/11/27 10:13:12;;;;;;;12.40;3.50;;;5.60;99.90;;;;;;4896399;29;20104;-66
2022/11/27 10:15:46;;;;;;;7.57;3.30;;;5.60;99.90;;;;;;4895514;29;20052;-68
2022/11/27 10:18:28;;;;;;;10.20;3.45;;;5.60;99.90;;;;;;4896160;29;20139;-66
2022/11/27 10:21:00;;;;;;;8.73;3.15;;;5.60;99.90;;;;;;4895347;29;20091;-66
2022/11/27 10:23:45;;;;;;;15.05;3.97;;;5.80;99.90;;;;;;4895830;29;20049;-67
2022/11/27 10:26:39;;;;;;;7.97;3.97;;;5.60;99.90;;;;;;4896010;29;20052;-67
2022/11/27 10:29:26;;;;;;;12.77;4.13;;;5.60;99.90;;;;;;4895667;29;20063;-66
2022/11/27 10:31:59;;;;;;;8.43;3.55;;;5.60;99.90;;;;;;4895821;29;20136;-66
2022/11/27 10:34:37;;;;;;;12.07;3.83;;;5.60;99.90;;;;;;4894193;29;20053;-66
2022/11/27 10:37:26;;;;;;;11.65;3.55;;;5.70;99.90;;;;;;4893699;29;20132;-66
2022/11/27 10:39:57;;;;;;;11.30;3.80;;;5.60;99.90;;;;;;4895160;29;20056;-66
2022/11/27 10:42:39;;;;;;;13.68;3.67;;;5.60;99.90;;;;;;4895564;29;20100;-66
2022/11/27 10:45:12;;;;;;;14.07;3.88;;;5.70;99.90;;;;;;4895804;29;20084;-67
2022/11/27 10:47:41;;;;;;;9.93;3.75;;;5.60;99.90;;;;;;4895948;29;20056;-66
2022/11/27 10:50:16;;;;;;;12.35;4.63;;;5.70;99.90;;;;;;4898250;29;20049;-66
2022/11/27 10:53:09;;;;;;;7.85;3.83;;;5.70;99.90;;;;;;4898350;29;20522;-68
2022/11/27 10:55:57;;;;;;;9.98;4.25;;;5.70;99.90;;;;;;4896706;29;20538;-66
2022/11/27 10:58:29;;;;;;;11.40;3.58;;;5.70;99.90;;;;;;4898898;29;20044;-66
2022/11/27 11:01:05;;;;;;;14.02;3.80;;;5.70;99.90;;;;;;4898379;29;20051;-66
2022/11/27 11:03:31;;;;;;;10.48;4.38;;;5.70;99.90;;;;;;4899174;29;20060;-66
2022/11/27 11:05:59;;;;;;;;;;;5.70;99.90;;;;;;4898464;29;20516;-66
2022/11/27 11:08:27;;;;;;;9.73;3.78;;;5.70;99.90;;;;;;4898445;29;19927;-67
2022/11/27 11:10:56;;;;;;;7.68;3.70;;;5.70;99.90;;;;;;4898404;29;20418;-67
2022/11/27 11:13:27;;;;;;;10.50;4.20;;;5.70;99.90;;;;;;4898803;29;20049;-67
2022/11/27 11:16:02;;;;;;;10.85;4.15;;;5.70;99.90;;;;;;4898328;29;20053;-66
2022/11/27 11:18:34;;;;;;;14.65;3.60;;;5.70;99.90;;;;;;4898916;29;20123;-66
2022/11/27 11:21:06;;;;;;;13.82;4.20;;;5.80;99.90;;;;;;4897594;29;20069;-66
2022/11/27 11:23:38;;;;;;;8.10;3.38;;;5.80;99.90;;;;;;4896749;29;20044;-67
2022/11/27 11:26:25;;;;;;;9.70;3.58;;;5.80;99.90;;;;;;4898252;29;20487;-66
2022/11/27 11:28:54;;;;;;;14.43;4.85;;;5.80;99.90;;;;;;4898200;29;20082;-67
2022/11/27 11:31:27;;;;;;;11.65;4.18;;;5.80;99.90;;;;;;4898135;29;20056;-67
2022/11/27 11:33:59;;;;;;;12.00;4.57;;;5.80;99.90;;;;;;4897457;29;20044;-67
2022/11/27 11:36:25;;;;;;;11.45;4.20;;;5.80;99.90;;;;;;4897294;29;20063;-66
2022/11/27 11:38:51;;;;;;;11.13;4.43;;;5.80;99.90;;;;;;4897211;29;20040;-66
2022/11/27 11:41:18;;;;;;;13.68;4.18;;;5.80;99.90;;;;;;4897525;29;20045;-66
2022/11/27 11:43:54;;;;;;;;;;;5.90;99.90;;;;;;4898132;29;20043;-67
2022/11/27 11:46:23;;;;;;;11.07;3.78;;;5.90;99.90;;;;;;4897689;29;19931;-66
2022/11/27 11:48:54;;;;;;;11.35;4.25;;;5.90;99.90;;;;;;4897510;29;20056;-69
2022/11/27 11:51:39;;;;;;;10.07;4.20;;;5.90;99.90;;;;;;4896775;29;20044;-66
2022/11/27 11:54:16;;;;;;;11.80;3.95;;;5.90;99.90;;;;;;4876336;29;20108;-66
2022/11/27 11:56:44;;;;;;;;;;;6.00;99.90;;;;;;4898139;29;20056;-67
2022/11/27 11:59:29;;;;;;;9.68;3.70;;;6.00;99.90;;;;;;4897068;29;20327;-67
2022/11/27 12:02:03;;;;;;;11.38;4.13;;;6.00;99.90;;;;;;4896381;29;20153;-66
2022/11/27 12:04:50;;;;;;;14.88;4.70;;;6.00;99.90;;;;;;4897027;29;20083;-66
2022/11/27 12:07:45;;;;;;;9.80;4.13;;;6.00;99.90;;;;;;4897352;29;20071;-66
2022/11/27 12:10:11;;;;;;;12.65;4.22;;;6.10;99.90;;;;;;4897450;29;20048;-66
2022/11/27 12:13:07;;;;;;;10.80;4.38;;;6.10;99.90;;;;;;4897940;29;20051;-66
2022/11/27 12:15:45;;;;;;;11.93;4.38;;;6.10;99.90;;;;;;4897352;29;20502;-66
2022/11/27 12:18:28;;;;;;;9.55;4.10;;;6.10;99.90;;;;;;4897463;29;20108;-66
2022/11/27 12:21:03;;;;;;;12.02;4.00;;;6.10;99.90;;;;;;4896905;29;20056;-68
2022/11/27 12:23:50;;;;;;;8.88;3.80;;;6.20;99.90;;;;;;4896821;29;20080;-67
2022/11/27 12:26:45;;;;;;;9.77;4.32;;;6.20;99.90;;;;;;4896058;29;20055;-67
2022/11/27 12:29:47;;;;;;;9.20;3.88;;;6.20;99.90;;;;;;4888049;29;20092;-66
2022/11/27 12:32:59;;;;;;;11.15;4.60;;;6.20;99.90;;;;;;4897138;29;20647;-66
2022/11/27 12:35:32;;;;;;;11.57;4.45;;;6.20;99.90;;;;;;4896961;29;20056;-66
2022/11/27 12:38:15;;;;;;;14.27;3.97;;;6.20;99.90;;;;;;4895584;29;20048;-67
2022/11/27 12:41:02;;;;;;;13.57;3.95;;;6.20;99.90;;;;;;4897033;29;20108;-66
2022/11/27 12:43:36;;;;;;;14.05;3.75;;;6.20;99.90;;;;;;4897000;29;20483;-66
2022/11/27 12:46:15;;;;;;;9.27;3.85;;;6.20;99.90;;;;;;4896503;29;20061;-67
2022/11/27 12:48:57;;;;;;;10.40;4.65;;;6.30;99.90;;;;;;4896346;29;20060;-66
2022/11/27 12:51:42;;;;;;;8.98;3.97;;;6.20;99.90;;;;;;4896711;29;20044;-66
2022/11/27 12:54:26;;;;;;;13.32;4.60;;;6.20;99.90;;;;;;4896618;29;20051;-66
2022/11/27 12:56:59;;;;;;;13.13;4.60;;;6.20;99.90;;;;;;4896757;29;20136;-66
2022/11/27 12:59:37;;;;;;;11.82;4.85;;;6.20;99.90;;;;;;4895138;29;20398;-66
2022/11/27 13:02:33;;;;;;;16.83;4.90;;;6.20;99.90;;;;;;4896096;29;20101;-66
2022/11/27 13:05:22;;;;;;;12.45;5.07;;;6.20;99.90;;;;;;4895459;29;20049;-66
2022/11/27 13:07:55;;;;;;;11.95;4.72;;;6.20;99.90;;;;;;4896552;29;20044;-66
2022/11/27 13:10:34;;;;;;;9.60;4.80;;;6.20;99.90;;;;;;4896376;29;20044;-67
2022/11/27 13:13:10;;;;;;;13.75;4.55;;;6.20;99.90;;;;;;4895781;29;20044;-65
2022/11/27 13:15:56;;;;;;;11.43;4.68;;;6.20;99.90;;;;;;4896618;29;20091;-66